sensor_id;sensor_type;location;lat;lon;timestamp;P1;durP1;ratioP1;P2;durP2;ratioP2
18776;SDS011;9517;51.174;4.160;2022-07-05T00:01:46;11.47;;;3.90;;
18776;SDS011;9517;51.174;4.160;2022-07-05T00:04:13;12.80;;;4.20;;
18776;SDS011;9517;51.174;4.160;2022-07-05T00:06:41;10.40;;;3.67;;
18776;SDS011;9517;51.174;4.160;2022-07-05T00:09:22;12.93;;;4.43;;
18776;SDS011;9517;51.174;4.160;2022-07-05T00:11:49;11.60;;;4.27;;
18776;SDS011;9517;51.174;4.160;2022-07-05T00:14:17;9.90;;;3.63;;
18776;SDS011;9517;51.174;4.160;2022-07-05T00:16:44;8.17;;;3.50;;
18776;SDS011;9517;51.174;4.160;2022-07-05T00:19:11;10.57;;;4.23;;
18776;SDS011;9517;51.174;4.160;2022-07-05T00:21:38;10.27;;;4.07;;
18776;SDS011;9517;51.174;4.160;2022-07-05T00:24:06;10.37;;;3.70;;
18776;SDS011;9517;51.174;4.160;2022-07-05T00:26:33;8.83;;;3.40;;
18776;SDS011;9517;51.174;4.160;2022-07-05T00:29:00;13.40;;;4.00;;
18776;SDS011;9517;51.174;4.160;2022-07-05T00:31:28;15.60;;;5.10;;
18776;SDS011;9517;51.174;4.160;2022-07-05T00:33:55;11.27;;;4.40;;
18776;SDS011;9517;51.174;4.160;2022-07-05T00:36:22;11.70;;;4.23;;
18776;SDS011;9517;51.174;4.160;2022-07-05T00:38:49;16.47;;;4.40;;
18776;SDS011;9517;51.174;4.160;2022-07-05T00:41:17;13.10;;;4.80;;
18776;SDS011;9517;51.174;4.160;2022-07-05T00:43:51;14.10;;;4.73;;
18776;SDS011;9517;51.174;4.160;2022-07-05T00:46:19;13.03;;;5.50;;
18776;SDS011;9517;51.174;4.160;2022-07-05T00:48:49;15.47;;;5.93;;
18776;SDS011;9517;51.174;4.160;2022-07-05T00:51:16;15.13;;;5.73;;
18776;SDS011;9517;51.174;4.160;2022-07-05T00:53:44;14.23;;;5.80;;
18776;SDS011;9517;51.174;4.160;2022-07-05T00:56:12;11.57;;;5.43;;
18776;SDS011;9517;51.174;4.160;2022-07-05T00:58:41;16.20;;;5.77;;
18776;SDS011;9517;51.174;4.160;2022-07-05T01:01:09;18.13;;;5.93;;
18776;SDS011;9517;51.174;4.160;2022-07-05T01:03:36;15.60;;;5.83;;
18776;SDS011;9517;51.174;4.160;2022-07-05T01:06:05;18.97;;;6.47;;
18776;SDS011;9517;51.174;4.160;2022-07-05T01:08:37;15.50;;;6.53;;
18776;SDS011;9517;51.174;4.160;2022-07-05T01:11:07;16.77;;;5.77;;
18776;SDS011;9517;51.174;4.160;2022-07-05T01:13:35;25.37;;;6.80;;
18776;SDS011;9517;51.174;4.160;2022-07-05T01:16:05;16.93;;;5.90;;
18776;SDS011;9517;51.174;4.160;2022-07-05T01:18:33;14.53;;;5.97;;
18776;SDS011;9517;51.174;4.160;2022-07-05T01:21:01;13.73;;;6.07;;
18776;SDS011;9517;51.174;4.160;2022-07-05T01:23:30;18.30;;;6.57;;
18776;SDS011;9517;51.174;4.160;2022-07-05T01:25:59;20.87;;;7.60;;
18776;SDS011;9517;51.174;4.160;2022-07-05T01:28:27;15.90;;;7.17;;
18776;SDS011;9517;51.174;4.160;2022-07-05T01:30:54;16.17;;;7.13;;
18776;SDS011;9517;51.174;4.160;2022-07-05T01:33:26;17.97;;;7.70;;
18776;SDS011;9517;51.174;4.160;2022-07-05T01:35:54;19.93;;;8.07;;
18776;SDS011;9517;51.174;4.160;2022-07-05T01:38:22;16.80;;;6.63;;
18776;SDS011;9517;51.174;4.160;2022-07-05T01:40:51;14.07;;;6.60;;
18776;SDS011;9517;51.174;4.160;2022-07-05T01:43:18;21.40;;;7.43;;
18776;SDS011;9517;51.174;4.160;2022-07-05T01:45:46;18.73;;;7.17;;
18776;SDS011;9517;51.174;4.160;2022-07-05T01:48:14;19.40;;;8.73;;
18776;SDS011;9517;51.174;4.160;2022-07-05T01:50:43;17.27;;;7.60;;
18776;SDS011;9517;51.174;4.160;2022-07-05T01:53:14;17.10;;;7.70;;
18776;SDS011;9517;51.174;4.160;2022-07-05T01:55:44;18.90;;;7.63;;
18776;SDS011;9517;51.174;4.160;2022-07-05T01:58:13;18.63;;;7.90;;
18776;SDS011;9517;51.174;4.160;2022-07-05T02:00:44;16.63;;;7.70;;
18776;SDS011;9517;51.174;4.160;2022-07-05T02:03:12;16.67;;;8.20;;
18776;SDS011;9517;51.174;4.160;2022-07-05T02:05:40;15.67;;;7.47;;
18776;SDS011;9517;51.174;4.160;2022-07-05T02:08:09;21.57;;;7.50;;
18776;SDS011;9517;51.174;4.160;2022-07-05T02:10:36;18.73;;;7.50;;
18776;SDS011;9517;51.174;4.160;2022-07-05T02:13:04;14.47;;;7.90;;
18776;SDS011;9517;51.174;4.160;2022-07-05T02:15:33;23.13;;;7.80;;
18776;SDS011;9517;51.174;4.160;2022-07-05T02:18:01;19.97;;;8.37;;
18776;SDS011;9517;51.174;4.160;2022-07-05T02:20:30;16.60;;;7.07;;
18776;SDS011;9517;51.174;4.160;2022-07-05T02:22:58;16.27;;;7.43;;
18776;SDS011;9517;51.174;4.160;2022-07-05T02:25:26;16.13;;;7.90;;
18776;SDS011;9517;51.174;4.160;2022-07-05T02:27:53;17.10;;;7.60;;
18776;SDS011;9517;51.174;4.160;2022-07-05T02:30:21;21.03;;;8.07;;
18776;SDS011;9517;51.174;4.160;2022-07-05T02:32:49;18.33;;;7.87;;
18776;SDS011;9517;51.174;4.160;2022-07-05T02:35:17;17.67;;;8.37;;
18776;SDS011;9517;51.174;4.160;2022-07-05T02:37:44;16.67;;;7.73;;
18776;SDS011;9517;51.174;4.160;2022-07-05T02:40:12;18.97;;;8.03;;
18776;SDS011;9517;51.174;4.160;2022-07-05T02:42:40;17.73;;;7.83;;
18776;SDS011;9517;51.174;4.160;2022-07-05T02:45:07;15.63;;;7.40;;
18776;SDS011;9517;51.174;4.160;2022-07-05T02:47:35;20.30;;;7.73;;
18776;SDS011;9517;51.174;4.160;2022-07-05T02:50:04;15.70;;;7.17;;
18776;SDS011;9517;51.174;4.160;2022-07-05T02:52:32;18.63;;;7.67;;
18776;SDS011;9517;51.174;4.160;2022-07-05T02:54:59;17.13;;;7.10;;
18776;SDS011;9517;51.174;4.160;2022-07-05T02:57:27;17.13;;;7.93;;
18776;SDS011;9517;51.174;4.160;2022-07-05T02:59:54;17.33;;;7.30;;
18776;SDS011;9517;51.174;4.160;2022-07-05T03:02:22;16.90;;;7.60;;
18776;SDS011;9517;51.174;4.160;2022-07-05T03:04:50;17.67;;;7.37;;
18776;SDS011;9517;51.174;4.160;2022-07-05T03:07:18;18.87;;;7.10;;
18776;SDS011;9517;51.174;4.160;2022-07-05T03:09:45;20.07;;;6.63;;
18776;SDS011;9517;51.174;4.160;2022-07-05T03:12:12;21.53;;;6.67;;
18776;SDS011;9517;51.174;4.160;2022-07-05T03:14:40;17.43;;;7.03;;
18776;SDS011;9517;51.174;4.160;2022-07-05T03:17:07;18.97;;;6.50;;
18776;SDS011;9517;51.174;4.160;2022-07-05T03:19:34;14.50;;;6.60;;
18776;SDS011;9517;51.174;4.160;2022-07-05T03:22:01;18.20;;;6.70;;
18776;SDS011;9517;51.174;4.160;2022-07-05T03:24:30;19.53;;;6.80;;
18776;SDS011;9517;51.174;4.160;2022-07-05T03:26:57;16.80;;;6.63;;
18776;SDS011;9517;51.174;4.160;2022-07-05T03:29:24;15.73;;;7.43;;
18776;SDS011;9517;51.174;4.160;2022-07-05T03:31:52;14.53;;;7.73;;
18776;SDS011;9517;51.174;4.160;2022-07-05T03:34:19;16.97;;;7.03;;
18776;SDS011;9517;51.174;4.160;2022-07-05T03:36:46;15.77;;;6.73;;
18776;SDS011;9517;51.174;4.160;2022-07-05T03:39:13;18.07;;;8.13;;
18776;SDS011;9517;51.174;4.160;2022-07-05T03:41:42;16.93;;;7.70;;
18776;SDS011;9517;51.174;4.160;2022-07-05T03:44:09;20.83;;;7.17;;
18776;SDS011;9517;51.174;4.160;2022-07-05T03:46:36;16.63;;;7.30;;
18776;SDS011;9517;51.174;4.160;2022-07-05T03:49:04;17.30;;;7.10;;
18776;SDS011;9517;51.174;4.160;2022-07-05T03:51:31;16.67;;;6.87;;
18776;SDS011;9517;51.174;4.160;2022-07-05T03:53:58;17.97;;;6.93;;
18776;SDS011;9517;51.174;4.160;2022-07-05T03:56:25;14.00;;;7.10;;
18776;SDS011;9517;51.174;4.160;2022-07-05T03:58:54;16.67;;;7.90;;
18776;SDS011;9517;51.174;4.160;2022-07-05T04:01:24;21.93;;;7.40;;
18776;SDS011;9517;51.174;4.160;2022-07-05T04:03:51;18.80;;;7.13;;
18776;SDS011;9517;51.174;4.160;2022-07-05T04:06:19;16.77;;;6.90;;
18776;SDS011;9517;51.174;4.160;2022-07-05T04:08:46;20.23;;;7.13;;
18776;SDS011;9517;51.174;4.160;2022-07-05T04:11:13;16.00;;;6.70;;
18776;SDS011;9517;51.174;4.160;2022-07-05T04:13:41;17.70;;;6.93;;
18776;SDS011;9517;51.174;4.160;2022-07-05T04:16:09;14.60;;;7.40;;
18776;SDS011;9517;51.174;4.160;2022-07-05T04:18:37;16.90;;;6.93;;
18776;SDS011;9517;51.174;4.160;2022-07-05T04:21:04;14.07;;;7.13;;
18776;SDS011;9517;51.174;4.160;2022-07-05T04:23:32;12.60;;;6.43;;
18776;SDS011;9517;51.174;4.160;2022-07-05T04:26:00;15.87;;;7.03;;
18776;SDS011;9517;51.174;4.160;2022-07-05T04:28:27;14.97;;;7.03;;
18776;SDS011;9517;51.174;4.160;2022-07-05T04:30:55;18.83;;;7.33;;
18776;SDS011;9517;51.174;4.160;2022-07-05T04:33:24;13.67;;;7.30;;
18776;SDS011;9517;51.174;4.160;2022-07-05T04:35:51;17.23;;;7.23;;
18776;SDS011;9517;51.174;4.160;2022-07-05T04:38:18;15.60;;;7.03;;
18776;SDS011;9517;51.174;4.160;2022-07-05T04:40:45;16.73;;;7.87;;
18776;SDS011;9517;51.174;4.160;2022-07-05T04:43:12;16.07;;;7.80;;
18776;SDS011;9517;51.174;4.160;2022-07-05T04:45:39;15.90;;;8.03;;
18776;SDS011;9517;51.174;4.160;2022-07-05T04:48:06;18.37;;;7.47;;
18776;SDS011;9517;51.174;4.160;2022-07-05T04:50:35;20.27;;;7.80;;
18776;SDS011;9517;51.174;4.160;2022-07-05T04:53:02;17.50;;;7.63;;
18776;SDS011;9517;51.174;4.160;2022-07-05T04:55:29;20.63;;;8.50;;
18776;SDS011;9517;51.174;4.160;2022-07-05T04:57:56;20.67;;;7.57;;
18776;SDS011;9517;51.174;4.160;2022-07-05T05:00:23;19.30;;;8.00;;
18776;SDS011;9517;51.174;4.160;2022-07-05T05:02:50;22.23;;;8.17;;
18776;SDS011;9517;51.174;4.160;2022-07-05T05:05:18;20.00;;;8.13;;
18776;SDS011;9517;51.174;4.160;2022-07-05T05:07:46;29.77;;;9.10;;
18776;SDS011;9517;51.174;4.160;2022-07-05T05:10:13;19.00;;;8.23;;
18776;SDS011;9517;51.174;4.160;2022-07-05T05:12:40;16.50;;;7.13;;
18776;SDS011;9517;51.174;4.160;2022-07-05T05:15:07;20.67;;;8.10;;
18776;SDS011;9517;51.174;4.160;2022-07-05T05:20:53;20.93;;;8.47;;
18776;SDS011;9517;51.174;4.160;2022-07-05T05:23:41;19.27;;;7.93;;
18776;SDS011;9517;51.174;4.160;2022-07-05T05:26:30;28.57;;;11.40;;
18776;SDS011;9517;51.174;4.160;2022-07-05T05:52:55;21.70;;;9.60;;
18776;SDS011;9517;51.174;4.160;2022-07-05T05:55:27;23.23;;;9.93;;
18776;SDS011;9517;51.174;4.160;2022-07-05T05:57:55;27.97;;;11.03;;
18776;SDS011;9517;51.174;4.160;2022-07-05T06:00:23;23.83;;;10.80;;
18776;SDS011;9517;51.174;4.160;2022-07-05T06:02:55;24.87;;;10.50;;
18776;SDS011;9517;51.174;4.160;2022-07-05T06:05:23;35.40;;;11.40;;
18776;SDS011;9517;51.174;4.160;2022-07-05T06:07:51;38.00;;;11.77;;
18776;SDS011;9517;51.174;4.160;2022-07-05T06:10:24;33.60;;;13.40;;
18776;SDS011;9517;51.174;4.160;2022-07-05T06:12:53;33.63;;;14.50;;
18776;SDS011;9517;51.174;4.160;2022-07-05T06:15:22;31.80;;;11.47;;
18776;SDS011;9517;51.174;4.160;2022-07-05T06:17:49;34.63;;;13.23;;
18776;SDS011;9517;51.174;4.160;2022-07-05T06:20:17;30.20;;;12.23;;
18776;SDS011;9517;51.174;4.160;2022-07-05T06:22:46;25.87;;;11.67;;
18776;SDS011;9517;51.174;4.160;2022-07-05T06:25:14;30.63;;;14.07;;
18776;SDS011;9517;51.174;4.160;2022-07-05T06:27:43;36.37;;;16.23;;
18776;SDS011;9517;51.174;4.160;2022-07-05T06:30:13;39.47;;;18.87;;
18776;SDS011;9517;51.174;4.160;2022-07-05T06:32:42;37.63;;;17.53;;
18776;SDS011;9517;51.174;4.160;2022-07-05T06:35:10;45.03;;;16.90;;
18776;SDS011;9517;51.174;4.160;2022-07-05T06:37:41;31.73;;;16.73;;
18776;SDS011;9517;51.174;4.160;2022-07-05T06:40:10;33.93;;;15.80;;
18776;SDS011;9517;51.174;4.160;2022-07-05T06:42:39;33.50;;;15.57;;
18776;SDS011;9517;51.174;4.160;2022-07-05T06:45:12;30.27;;;14.83;;
18776;SDS011;9517;51.174;4.160;2022-07-05T06:48:13;34.30;;;14.53;;
18776;SDS011;9517;51.174;4.160;2022-07-05T06:50:42;31.77;;;14.70;;
18776;SDS011;9517;51.174;4.160;2022-07-05T06:53:10;39.93;;;17.33;;
18776;SDS011;9517;51.174;4.160;2022-07-05T06:55:38;27.93;;;14.57;;
18776;SDS011;9517;51.174;4.160;2022-07-05T06:58:09;33.53;;;14.73;;
18776;SDS011;9517;51.174;4.160;2022-07-05T07:00:42;30.80;;;14.33;;
18776;SDS011;9517;51.174;4.160;2022-07-05T07:03:10;27.83;;;13.23;;
18776;SDS011;9517;51.174;4.160;2022-07-05T07:05:37;30.87;;;13.33;;
18776;SDS011;9517;51.174;4.160;2022-07-05T07:08:05;29.10;;;13.00;;
18776;SDS011;9517;51.174;4.160;2022-07-05T07:10:49;30.97;;;12.43;;
18776;SDS011;9517;51.174;4.160;2022-07-05T07:13:17;28.80;;;11.97;;
18776;SDS011;9517;51.174;4.160;2022-07-05T07:15:47;24.03;;;10.13;;
18776;SDS011;9517;51.174;4.160;2022-07-05T07:18:14;26.97;;;11.10;;
18776;SDS011;9517;51.174;4.160;2022-07-05T07:20:42;26.73;;;10.93;;
18776;SDS011;9517;51.174;4.160;2022-07-05T07:23:09;24.07;;;11.20;;
18776;SDS011;9517;51.174;4.160;2022-07-05T07:25:36;26.37;;;9.90;;
18776;SDS011;9517;51.174;4.160;2022-07-05T07:28:04;22.40;;;9.87;;
18776;SDS011;9517;51.174;4.160;2022-07-05T07:30:32;28.07;;;11.13;;
18776;SDS011;9517;51.174;4.160;2022-07-05T07:33:00;22.17;;;10.67;;
18776;SDS011;9517;51.174;4.160;2022-07-05T07:35:28;25.90;;;10.60;;
18776;SDS011;9517;51.174;4.160;2022-07-05T07:37:58;28.97;;;9.50;;
18776;SDS011;9517;51.174;4.160;2022-07-05T07:40:26;22.33;;;8.13;;
18776;SDS011;9517;51.174;4.160;2022-07-05T07:42:53;29.77;;;8.40;;
18776;SDS011;9517;51.174;4.160;2022-07-05T07:45:20;24.43;;;9.13;;
18776;SDS011;9517;51.174;4.160;2022-07-05T07:47:48;19.70;;;8.20;;
18776;SDS011;9517;51.174;4.160;2022-07-05T07:50:18;20.47;;;9.50;;
18776;SDS011;9517;51.174;4.160;2022-07-05T07:52:45;32.53;;;9.33;;
18776;SDS011;9517;51.174;4.160;2022-07-05T07:55:13;22.80;;;8.43;;
18776;SDS011;9517;51.174;4.160;2022-07-05T07:57:40;22.10;;;9.20;;
18776;SDS011;9517;51.174;4.160;2022-07-05T08:00:08;25.33;;;8.63;;
18776;SDS011;9517;51.174;4.160;2022-07-05T08:02:35;31.10;;;9.00;;
18776;SDS011;9517;51.174;4.160;2022-07-05T08:05:03;28.17;;;8.43;;
18776;SDS011;9517;51.174;4.160;2022-07-05T08:07:32;22.87;;;8.20;;
18776;SDS011;9517;51.174;4.160;2022-07-05T08:10:00;23.97;;;8.00;;
18776;SDS011;9517;51.174;4.160;2022-07-05T08:12:27;20.47;;;6.20;;
18776;SDS011;9517;51.174;4.160;2022-07-05T08:14:54;15.57;;;5.83;;
18776;SDS011;9517;51.174;4.160;2022-07-05T08:17:22;15.07;;;5.80;;
18776;SDS011;9517;51.174;4.160;2022-07-05T08:19:50;20.63;;;5.43;;
18776;SDS011;9517;51.174;4.160;2022-07-05T08:22:36;18.27;;;6.67;;
18776;SDS011;9517;51.174;4.160;2022-07-05T08:25:04;18.63;;;5.73;;
18776;SDS011;9517;51.174;4.160;2022-07-05T08:27:32;20.37;;;6.13;;
18776;SDS011;9517;51.174;4.160;2022-07-05T08:30:00;15.23;;;5.17;;
18776;SDS011;9517;51.174;4.160;2022-07-05T08:32:28;16.73;;;4.70;;
18776;SDS011;9517;51.174;4.160;2022-07-05T08:35:10;16.27;;;4.67;;
18776;SDS011;9517;51.174;4.160;2022-07-05T08:37:44;16.70;;;4.50;;
18776;SDS011;9517;51.174;4.160;2022-07-05T08:40:11;16.03;;;4.70;;
18776;SDS011;9517;51.174;4.160;2022-07-05T08:42:41;14.67;;;4.00;;
18776;SDS011;9517;51.174;4.160;2022-07-05T08:45:09;15.93;;;4.20;;
18776;SDS011;9517;51.174;4.160;2022-07-05T08:47:39;15.53;;;3.97;;
18776;SDS011;9517;51.174;4.160;2022-07-05T08:50:08;15.87;;;4.10;;
18776;SDS011;9517;51.174;4.160;2022-07-05T08:52:39;13.50;;;4.00;;
18776;SDS011;9517;51.174;4.160;2022-07-05T08:55:09;14.63;;;4.20;;
18776;SDS011;9517;51.174;4.160;2022-07-05T08:57:38;15.87;;;4.60;;
18776;SDS011;9517;51.174;4.160;2022-07-05T09:00:06;13.37;;;4.20;;
18776;SDS011;9517;51.174;4.160;2022-07-05T09:02:35;15.47;;;4.00;;
18776;SDS011;9517;51.174;4.160;2022-07-05T09:05:02;15.90;;;4.10;;
18776;SDS011;9517;51.174;4.160;2022-07-05T09:07:30;14.80;;;4.33;;
18776;SDS011;9517;51.174;4.160;2022-07-05T09:10:03;16.57;;;3.87;;
18776;SDS011;9517;51.174;4.160;2022-07-05T09:12:33;13.03;;;3.47;;
18776;SDS011;9517;51.174;4.160;2022-07-05T09:15:02;13.63;;;3.43;;
18776;SDS011;9517;51.174;4.160;2022-07-05T09:17:30;10.40;;;3.43;;
18776;SDS011;9517;51.174;4.160;2022-07-05T09:20:05;11.70;;;2.97;;
18776;SDS011;9517;51.174;4.160;2022-07-05T09:22:43;9.23;;;2.30;;
18776;SDS011;9517;51.174;4.160;2022-07-05T09:25:12;7.73;;;3.07;;
18776;SDS011;9517;51.174;4.160;2022-07-05T09:27:49;14.63;;;4.53;;
18776;SDS011;9517;51.174;4.160;2022-07-05T09:30:31;13.10;;;3.23;;
18776;SDS011;9517;51.174;4.160;2022-07-05T09:33:00;10.23;;;2.90;;
18776;SDS011;9517;51.174;4.160;2022-07-05T09:35:28;9.73;;;3.10;;
18776;SDS011;9517;51.174;4.160;2022-07-05T09:37:55;10.87;;;3.47;;
18776;SDS011;9517;51.174;4.160;2022-07-05T09:40:23;13.67;;;3.23;;
18776;SDS011;9517;51.174;4.160;2022-07-05T09:42:51;11.40;;;3.60;;
18776;SDS011;9517;51.174;4.160;2022-07-05T09:45:22;12.37;;;4.03;;
18776;SDS011;9517;51.174;4.160;2022-07-05T09:47:50;12.73;;;4.30;;
18776;SDS011;9517;51.174;4.160;2022-07-05T09:50:32;8.73;;;3.20;;
18776;SDS011;9517;51.174;4.160;2022-07-05T09:53:00;11.67;;;3.17;;
18776;SDS011;9517;51.174;4.160;2022-07-05T09:55:27;12.90;;;3.87;;
18776;SDS011;9517;51.174;4.160;2022-07-05T09:57:56;16.13;;;5.13;;
18776;SDS011;9517;51.174;4.160;2022-07-05T10:00:24;15.37;;;4.37;;
18776;SDS011;9517;51.174;4.160;2022-07-05T10:02:51;15.70;;;4.77;;
18776;SDS011;9517;51.174;4.160;2022-07-05T10:05:24;13.50;;;4.50;;
18776;SDS011;9517;51.174;4.160;2022-07-05T10:07:53;13.07;;;4.95;;
18776;SDS011;9517;51.174;4.160;2022-07-05T10:10:21;13.63;;;5.00;;
18776;SDS011;9517;51.174;4.160;2022-07-05T10:12:53;18.17;;;4.97;;
18776;SDS011;9517;51.174;4.160;2022-07-05T10:29:22;10.63;;;3.20;;
18776;SDS011;9517;51.174;4.160;2022-07-05T10:31:51;9.35;;;2.53;;
18776;SDS011;9517;51.174;4.160;2022-07-05T10:34:18;7.57;;;2.40;;
18776;SDS011;9517;51.174;4.160;2022-07-05T10:36:45;10.57;;;2.90;;
18776;SDS011;9517;51.174;4.160;2022-07-05T10:39:13;13.83;;;2.50;;
18776;SDS011;9517;51.174;4.160;2022-07-05T10:41:41;10.13;;;2.50;;
18776;SDS011;9517;51.174;4.160;2022-07-05T10:44:09;9.27;;;2.27;;
18776;SDS011;9517;51.174;4.160;2022-07-05T10:46:38;7.57;;;1.90;;
18776;SDS011;9517;51.174;4.160;2022-07-05T10:49:11;7.47;;;2.30;;
18776;SDS011;9517;51.174;4.160;2022-07-05T10:51:41;8.57;;;2.53;;
18776;SDS011;9517;51.174;4.160;2022-07-05T10:54:09;7.70;;;2.40;;
18776;SDS011;9517;51.174;4.160;2022-07-05T10:56:37;9.63;;;2.30;;
18776;SDS011;9517;51.174;4.160;2022-07-05T10:59:06;8.87;;;2.60;;
18776;SDS011;9517;51.174;4.160;2022-07-05T11:01:39;9.87;;;2.23;;
18776;SDS011;9517;51.174;4.160;2022-07-05T11:04:10;8.20;;;1.97;;
18776;SDS011;9517;51.174;4.160;2022-07-05T11:06:47;6.53;;;1.73;;
18776;SDS011;9517;51.174;4.160;2022-07-05T11:09:16;7.55;;;1.42;;
18776;SDS011;9517;51.174;4.160;2022-07-05T11:11:44;6.18;;;1.60;;
18776;SDS011;9517;51.174;4.160;2022-07-05T11:14:32;5.13;;;1.80;;
18776;SDS011;9517;51.174;4.160;2022-07-05T11:17:13;4.30;;;1.33;;
18776;SDS011;9517;51.174;4.160;2022-07-05T11:20:15;5.10;;;1.42;;
18776;SDS011;9517;51.174;4.160;2022-07-05T11:23:01;14.45;;;1.70;;
18776;SDS011;9517;51.174;4.160;2022-07-05T11:25:31;11.77;;;1.60;;
18776;SDS011;9517;51.174;4.160;2022-07-05T11:27:59;3.67;;;1.20;;
18776;SDS011;9517;51.174;4.160;2022-07-05T11:30:27;8.27;;;1.83;;
18776;SDS011;9517;51.174;4.160;2022-07-05T11:32:56;10.63;;;1.80;;
18776;SDS011;9517;51.174;4.160;2022-07-05T11:35:28;7.05;;;1.30;;
18776;SDS011;9517;51.174;4.160;2022-07-05T11:37:59;6.85;;;1.65;;
18776;SDS011;9517;51.174;4.160;2022-07-05T11:40:29;4.13;;;1.10;;
18776;SDS011;9517;51.174;4.160;2022-07-05T11:42:59;9.40;;;1.30;;
18776;SDS011;9517;51.174;4.160;2022-07-05T11:45:28;7.50;;;1.45;;
18776;SDS011;9517;51.174;4.160;2022-07-05T11:48:15;15.73;;;2.13;;
18776;SDS011;9517;51.174;4.160;2022-07-05T11:54:22;5.55;;;1.33;;
18776;SDS011;9517;51.174;4.160;2022-07-05T11:57:08;5.50;;;1.42;;
18776;SDS011;9517;51.174;4.160;2022-07-05T11:59:37;5.88;;;1.20;;
18776;SDS011;9517;51.174;4.160;2022-07-05T12:02:14;9.95;;;1.67;;
18776;SDS011;9517;51.174;4.160;2022-07-05T12:05:22;5.25;;;1.33;;
18776;SDS011;9517;51.174;4.160;2022-07-05T12:07:50;5.93;;;1.10;;
18776;SDS011;9517;51.174;4.160;2022-07-05T12:10:19;5.53;;;1.13;;
18776;SDS011;9517;51.174;4.160;2022-07-05T12:13:04;7.80;;;1.48;;
18776;SDS011;9517;51.174;4.160;2022-07-05T12:15:32;10.35;;;1.55;;
18776;SDS011;9517;51.174;4.160;2022-07-05T12:18:00;5.60;;;1.25;;
18776;SDS011;9517;51.174;4.160;2022-07-05T12:20:31;7.00;;;1.30;;
18776;SDS011;9517;51.174;4.160;2022-07-05T12:26:19;8.80;;;1.60;;
18776;SDS011;9517;51.174;4.160;2022-07-05T12:29:07;7.18;;;1.58;;
18776;SDS011;9517;51.174;4.160;2022-07-05T12:31:35;5.20;;;1.25;;
18776;SDS011;9517;51.174;4.160;2022-07-05T12:34:15;5.53;;;1.20;;
18776;SDS011;9517;51.174;4.160;2022-07-05T12:36:44;5.88;;;1.30;;
18776;SDS011;9517;51.174;4.160;2022-07-05T12:39:15;12.82;;;1.23;;
18776;SDS011;9517;51.174;4.160;2022-07-05T12:41:43;8.20;;;1.30;;
18776;SDS011;9517;51.174;4.160;2022-07-05T12:44:11;7.35;;;1.10;;
18776;SDS011;9517;51.174;4.160;2022-07-05T12:46:38;4.45;;;1.23;;
18776;SDS011;9517;51.174;4.160;2022-07-05T12:49:08;5.68;;;1.00;;
18776;SDS011;9517;51.174;4.160;2022-07-05T12:51:37;4.82;;;1.42;;
18776;SDS011;9517;51.174;4.160;2022-07-05T12:54:07;7.07;;;1.23;;
18776;SDS011;9517;51.174;4.160;2022-07-05T12:57:02;7.70;;;1.60;;
18776;SDS011;9517;51.174;4.160;2022-07-05T12:59:56;7.80;;;1.10;;
18776;SDS011;9517;51.174;4.160;2022-07-05T13:02:40;8.38;;;1.30;;
18776;SDS011;9517;51.174;4.160;2022-07-05T13:05:31;4.32;;;1.10;;
18776;SDS011;9517;51.174;4.160;2022-07-05T13:07:58;4.75;;;1.17;;
18776;SDS011;9517;51.174;4.160;2022-07-05T13:10:27;5.03;;;0.98;;
18776;SDS011;9517;51.174;4.160;2022-07-05T13:12:57;4.97;;;1.27;;
18776;SDS011;9517;51.174;4.160;2022-07-05T13:15:24;4.55;;;1.15;;
18776;SDS011;9517;51.174;4.160;2022-07-05T13:17:51;5.65;;;1.40;;
18776;SDS011;9517;51.174;4.160;2022-07-05T13:20:19;5.97;;;1.02;;
18776;SDS011;9517;51.174;4.160;2022-07-05T13:22:48;5.38;;;0.82;;
18776;SDS011;9517;51.174;4.160;2022-07-05T13:25:15;4.28;;;0.93;;
18776;SDS011;9517;51.174;4.160;2022-07-05T13:27:44;5.93;;;1.37;;
18776;SDS011;9517;51.174;4.160;2022-07-05T13:30:12;4.82;;;1.10;;
18776;SDS011;9517;51.174;4.160;2022-07-05T13:32:39;8.37;;;1.07;;
18776;SDS011;9517;51.174;4.160;2022-07-05T13:35:07;6.00;;;1.00;;
18776;SDS011;9517;51.174;4.160;2022-07-05T13:37:36;5.20;;;1.05;;
18776;SDS011;9517;51.174;4.160;2022-07-05T13:40:04;4.35;;;0.95;;
18776;SDS011;9517;51.174;4.160;2022-07-05T13:42:32;2.88;;;1.10;;
18776;SDS011;9517;51.174;4.160;2022-07-05T13:45:00;3.22;;;0.90;;
18776;SDS011;9517;51.174;4.160;2022-07-05T13:47:28;6.77;;;1.10;;
18776;SDS011;9517;51.174;4.160;2022-07-05T13:49:55;6.60;;;1.73;;
18776;SDS011;9517;51.174;4.160;2022-07-05T13:52:35;7.13;;;1.00;;
18776;SDS011;9517;51.174;4.160;2022-07-05T13:55:03;4.20;;;1.10;;
18776;SDS011;9517;51.174;4.160;2022-07-05T13:57:30;5.37;;;0.90;;
18776;SDS011;9517;51.174;4.160;2022-07-05T13:59:57;3.40;;;1.00;;
18776;SDS011;9517;51.174;4.160;2022-07-05T14:02:32;6.57;;;1.30;;
18776;SDS011;9517;51.174;4.160;2022-07-05T14:05:03;6.17;;;1.10;;
18776;SDS011;9517;51.174;4.160;2022-07-05T14:13:46;4.50;;;1.30;;
18776;SDS011;9517;51.174;4.160;2022-07-05T14:16:20;4.50;;;1.20;;
18776;SDS011;9517;51.174;4.160;2022-07-05T14:19:12;4.20;;;1.00;;
18776;SDS011;9517;51.174;4.160;2022-07-05T14:28:07;4.00;;;0.90;;
18776;SDS011;9517;51.174;4.160;2022-07-05T14:30:34;3.30;;;0.80;;
18776;SDS011;9517;51.174;4.160;2022-07-05T14:33:04;5.87;;;0.80;;
18776;SDS011;9517;51.174;4.160;2022-07-05T14:35:34;5.20;;;0.87;;
18776;SDS011;9517;51.174;4.160;2022-07-05T14:38:02;3.88;;;0.90;;
18776;SDS011;9517;51.174;4.160;2022-07-05T14:40:30;5.60;;;0.90;;
18776;SDS011;9517;51.174;4.160;2022-07-05T14:42:58;1.80;;;0.77;;
18776;SDS011;9517;51.174;4.160;2022-07-05T14:45:26;1.85;;;0.80;;
18776;SDS011;9517;51.174;4.160;2022-07-05T14:47:55;4.05;;;0.80;;
18776;SDS011;9517;51.174;4.160;2022-07-05T14:50:23;2.58;;;0.80;;
18776;SDS011;9517;51.174;4.160;2022-07-05T14:52:53;3.15;;;0.82;;
18776;SDS011;9517;51.174;4.160;2022-07-05T14:55:20;3.00;;;0.90;;
18776;SDS011;9517;51.174;4.160;2022-07-05T14:57:48;3.58;;;0.77;;
18776;SDS011;9517;51.174;4.160;2022-07-05T15:00:17;4.70;;;1.08;;
18776;SDS011;9517;51.174;4.160;2022-07-05T15:02:45;6.40;;;1.05;;
18776;SDS011;9517;51.174;4.160;2022-07-05T15:05:12;7.32;;;1.10;;
18776;SDS011;9517;51.174;4.160;2022-07-05T15:07:39;5.05;;;0.80;;
18776;SDS011;9517;51.174;4.160;2022-07-05T15:10:09;4.55;;;0.82;;
18776;SDS011;9517;51.174;4.160;2022-07-05T15:12:37;5.22;;;1.40;;
18776;SDS011;9517;51.174;4.160;2022-07-05T15:15:05;5.43;;;1.38;;
18776;SDS011;9517;51.174;4.160;2022-07-05T15:17:34;23.60;;;3.10;;
18776;SDS011;9517;51.174;4.160;2022-07-05T15:20:02;5.60;;;1.00;;
18776;SDS011;9517;51.174;4.160;2022-07-05T15:22:31;6.28;;;1.00;;
18776;SDS011;9517;51.174;4.160;2022-07-05T15:24:58;16.33;;;1.48;;
18776;SDS011;9517;51.174;4.160;2022-07-05T15:27:48;4.75;;;1.00;;
18776;SDS011;9517;51.174;4.160;2022-07-05T15:30:15;5.65;;;1.10;;
18776;SDS011;9517;51.174;4.160;2022-07-05T15:32:47;3.83;;;0.85;;
18776;SDS011;9517;51.174;4.160;2022-07-05T15:35:15;8.45;;;1.10;;
18776;SDS011;9517;51.174;4.160;2022-07-05T15:37:42;7.68;;;1.13;;
18776;SDS011;9517;51.174;4.160;2022-07-05T15:40:10;4.45;;;1.13;;
18776;SDS011;9517;51.174;4.160;2022-07-05T15:42:39;3.70;;;0.80;;
18776;SDS011;9517;51.174;4.160;2022-07-05T15:45:07;6.85;;;1.13;;
18776;SDS011;9517;51.174;4.160;2022-07-05T15:47:35;2.95;;;0.90;;
18776;SDS011;9517;51.174;4.160;2022-07-05T15:50:04;3.83;;;1.00;;
18776;SDS011;9517;51.174;4.160;2022-07-05T15:52:34;3.95;;;0.90;;
18776;SDS011;9517;51.174;4.160;2022-07-05T15:55:02;1.85;;;0.80;;
18776;SDS011;9517;51.174;4.160;2022-07-05T15:57:29;4.90;;;1.00;;
18776;SDS011;9517;51.174;4.160;2022-07-05T15:59:58;7.25;;;1.10;;
18776;SDS011;9517;51.174;4.160;2022-07-05T16:02:25;6.00;;;1.10;;
18776;SDS011;9517;51.174;4.160;2022-07-05T16:04:52;4.97;;;0.82;;
18776;SDS011;9517;51.174;4.160;2022-07-05T16:07:19;4.93;;;0.77;;